EastWest Aircraft Sales has several offices across the USA. See map for information on the nearest airstrips.

Naples Municipal Airport

Available data for KAPF from the past 2 hours
NAPLES MUNICIPAL, FL
Metar
KAPF 230553Z AUTO 08006KT 10SM CLR 20/17 A3011 RMK AO2 SLP193 T02000172 10239 20200 56000

05:53 UTC

Wind: 80° 6kt

Visibility: 10 SM

Sky:

Temp: 20 deg C / 68 deg F

Dewpoint: 17 deg C / 62.6 deg F

Pressure: 30.11 inHg

TAF
KAPF 230520Z 2306/2406 08003KT P6SM SKC FM231400 07008KT P6SM SCT040 FM231800 29012KT P6SM FEW040 FM240200 VRB03KT P6SM SKC

Hillsboro Airport

Available data for KHIO from the past 2 hours
HILLSBORO/PORTLD, OR
Metar
KHIO 230553Z AUTO 31003KT 10SM OVC035 13/11 A3023 RMK AO2 SLP235 60001 T01280111 10172 20128 57006

05:53 UTC

Wind: 310° 3kt

Visibility: 10 SM

Sky: OVC 3500 ft

Temp: 13 deg C / 55.4 deg F

Dewpoint: 11 deg C / 51.8 deg F

Pressure: 30.23 inHg

TAF
KHIO 230520Z 2306/2406 VRB04KT P6SM -SHRA OVC040 FM230900 VRB02KT P6SM VCSH OVC025 FM231500 VRB05KT P6SM VCSH SCT012 BKN020 OVC120 FM232100 31007KT P6SM SCT020 BKN035 FM240300 31009KT P6SM BKN250